Auckland, New Zealand
Current Conditions -  °F | °C
As of 6:00 PM on Monday 22 Dec 2014 (Local Time) from NZAA Reporting Station
Clear Clear  
Wind Chill: 66°   Ceiling: Unl
Heat Index: 66°   Visibility: 6mi
Dew Point: 55°   Wind: 13mph
Humidity: 68%   Direction: 210°SSW
Pressure: 30.12"   Gusts: NA
Location:  36.85°S, 174.77°E
Report Text: NZAA 220600Z AUTO 21011KT 9999 NCD 19/13 Q1020 NOSIG
Loading
Personal Weather Stations






























Interactive Weather Map New forecast layout! Learn more

10-Day Weather Forecast

Advertisements
Track Severe Weather on mobile